createdAt,value
2022-12-11T00:00:52.235Z,76.76
2022-12-11T00:03:19.581Z,76.75
2022-12-11T00:05:46.812Z,77.00
2022-12-11T00:08:14.288Z,76.79
2022-12-11T00:10:49.545Z,77.03
2022-12-11T00:13:16.522Z,77.10
2022-12-11T00:15:43.539Z,77.31
2022-12-11T00:18:14.533Z,77.29
2022-12-11T00:20:41.992Z,78.13
2022-12-11T00:23:09.038Z,77.79
2022-12-11T00:25:36.143Z,77.68
2022-12-11T00:28:03.057Z,77.86
2022-12-11T00:30:29.980Z,77.39
2022-12-11T00:32:56.971Z,77.38
2022-12-11T00:35:23.908Z,77.18
2022-12-11T00:37:50.736Z,77.70
2022-12-11T00:40:17.743Z,77.17
2022-12-11T00:42:44.628Z,77.36
2022-12-11T00:45:11.928Z,77.31
2022-12-11T00:47:39.116Z,76.77
2022-12-11T00:50:06.633Z,77.11
2022-12-11T00:52:33.571Z,77.48
2022-12-11T00:55:00.479Z,76.46
2022-12-11T00:57:27.365Z,77.49
2022-12-11T00:59:54.624Z,77.15
2022-12-11T01:02:21.599Z,77.20
2022-12-11T01:04:48.600Z,77.71
2022-12-11T01:07:15.582Z,77.39
2022-12-11T01:10:00.894Z,77.48
2022-12-11T01:12:28.698Z,77.53
2022-12-11T01:14:55.688Z,77.74
2022-12-11T01:17:22.731Z,77.96
2022-12-11T01:19:49.778Z,78.28
2022-12-11T01:22:16.706Z,78.01
2022-12-11T01:24:43.663Z,77.63
2022-12-11T01:27:10.701Z,77.72
2022-12-11T01:29:37.823Z,77.69
2022-12-11T01:32:05.059Z,77.32
2022-12-11T01:34:33.384Z,77.73
2022-12-11T01:37:00.292Z,77.16
2022-12-11T01:39:27.246Z,77.79
2022-12-11T01:41:58.724Z,77.74
2022-12-11T01:44:25.676Z,77.80
2022-12-11T01:46:54.489Z,77.80
2022-12-11T01:49:26.114Z,77.51
2022-12-11T01:52:01.775Z,77.04
2022-12-11T01:54:29.895Z,76.89
2022-12-11T01:57:01.701Z,77.05
2022-12-11T01:59:31.131Z,77.98
2022-12-11T02:02:30.880Z,77.57
2022-12-11T02:04:58.551Z,77.79
2022-12-11T02:07:25.532Z,78.12
2022-12-11T02:09:52.507Z,79.75
2022-12-11T02:12:21.972Z,79.25
2022-12-11T02:15:16.883Z,78.81
2022-12-11T02:18:16.266Z,81.74
2022-12-11T02:20:45.931Z,80.85
2022-12-11T02:23:12.883Z,80.76
2022-12-11T02:25:58.323Z,82.37
2022-12-11T02:28:41.878Z,81.93
2022-12-11T02:31:26.472Z,82.26
2022-12-11T02:34:02.842Z,81.98
2022-12-11T02:36:34.112Z,82.71
2022-12-11T02:39:03.288Z,81.58
2022-12-11T02:41:31.429Z,82.48
2022-12-11T02:44:00.512Z,82.25
2022-12-11T02:46:28.578Z,82.60
2022-12-11T02:48:56.983Z,83.02
2022-12-11T02:51:32.520Z,82.59
2022-12-11T02:54:00.088Z,83.54
2022-12-11T02:56:42.303Z,84.02
2022-12-11T02:59:15.710Z,84.28
2022-12-11T03:01:43.542Z,84.07
2022-12-11T03:04:10.561Z,83.40
2022-12-11T03:06:42.661Z,82.99
2022-12-11T03:09:10.444Z,82.42
2022-12-11T03:11:37.305Z,81.49
2022-12-11T03:14:04.525Z,81.56
2022-12-11T03:16:36.540Z,80.90
2022-12-11T03:19:21.659Z,80.66
2022-12-11T03:21:58.726Z,80.57
2022-12-11T03:24:50.329Z,80.13
2022-12-11T03:27:20.222Z,80.26
2022-12-11T03:29:57.907Z,80.21
2022-12-11T03:32:31.031Z,79.89
2022-12-11T03:35:08.686Z,79.47
2022-12-11T03:37:38.852Z,80.10
2022-12-11T03:40:16.199Z,80.40
2022-12-11T03:42:47.506Z,80.21
2022-12-11T03:45:16.379Z,81.01
2022-12-11T03:47:45.345Z,81.02
2022-12-11T03:50:16.114Z,81.30
2022-12-11T03:52:46.380Z,80.81
2022-12-11T03:55:16.259Z,81.57
2022-12-11T03:57:43.831Z,81.17
2022-12-11T04:00:14.434Z,81.42
2022-12-11T04:02:42.454Z,81.48
2022-12-11T04:05:10.343Z,81.70
2022-12-11T04:07:37.883Z,80.78
2022-12-11T04:10:05.633Z,81.19
2022-12-11T04:12:32.571Z,81.29
2022-12-11T04:15:02.265Z,80.68
2022-12-11T04:17:53.240Z,80.72
2022-12-11T04:20:39.445Z,79.94
2022-12-11T04:23:36.765Z,79.52
2022-12-11T04:26:10.570Z,79.14
2022-12-11T04:28:38.285Z,78.86
2022-12-11T04:31:05.648Z,78.73
2022-12-11T04:33:32.647Z,78.07
2022-12-11T04:36:01.176Z,77.58
2022-12-11T04:38:28.280Z,77.29
2022-12-11T04:41:02.581Z,76.32
2022-12-11T04:43:29.520Z,75.91
2022-12-11T04:46:04.280Z,75.73
2022-12-11T04:48:31.247Z,75.18
2022-12-11T04:50:58.350Z,74.64
2022-12-11T04:53:25.464Z,74.56
2022-12-11T04:55:52.336Z,74.71
2022-12-11T04:58:19.305Z,74.16
2022-12-11T05:00:46.554Z,74.34
2022-12-11T05:03:13.519Z,74.76
2022-12-11T05:05:40.553Z,74.29
2022-12-11T05:08:08.392Z,74.22
2022-12-11T05:10:35.362Z,74.25
2022-12-11T05:13:02.300Z,73.76
2022-12-11T05:15:29.180Z,73.61
2022-12-11T05:17:56.055Z,73.73
2022-12-11T05:20:25.471Z,73.59
2022-12-11T05:22:52.400Z,73.70
2022-12-11T05:25:19.267Z,73.65
2022-12-11T05:27:46.250Z,73.35
2022-12-11T05:30:13.295Z,73.40
2022-12-11T05:32:40.169Z,73.32
2022-12-11T05:35:07.459Z,73.57
2022-12-11T05:37:34.844Z,72.69
2022-12-11T05:40:02.034Z,73.13
2022-12-11T05:42:29.299Z,72.82
2022-12-11T05:44:56.326Z,72.59
2022-12-11T05:47:23.348Z,72.58
2022-12-11T05:49:51.086Z,72.36
2022-12-11T05:52:18.298Z,72.51
2022-12-11T05:54:45.245Z,72.76
2022-12-11T05:57:12.142Z,72.69
2022-12-11T05:59:39.217Z,72.54
2022-12-11T06:02:06.193Z,72.72
2022-12-11T06:04:33.972Z,72.64
2022-12-11T06:07:01.536Z,72.78
2022-12-11T06:09:28.596Z,72.33
2022-12-11T06:11:55.542Z,72.60
2022-12-11T06:14:22.439Z,72.49
2022-12-11T06:16:50.319Z,72.83
2022-12-11T06:19:18.857Z,72.83
2022-12-11T06:21:46.572Z,72.93
2022-12-11T06:24:13.646Z,72.46
2022-12-11T06:26:40.690Z,72.89
2022-12-11T06:29:10.965Z,72.83
2022-12-11T06:31:40.445Z,72.71
2022-12-11T06:34:07.591Z,73.28
2022-12-11T06:36:34.823Z,72.89
2022-12-11T06:39:01.718Z,73.00
2022-12-11T06:41:28.659Z,72.48
2022-12-11T06:43:55.580Z,73.01
2022-12-11T06:46:22.727Z,72.93
2022-12-11T06:48:50.128Z,73.02
2022-12-11T06:51:22.836Z,72.73
2022-12-11T06:53:54.870Z,72.29
2022-12-11T06:56:22.696Z,73.24
2022-12-11T06:58:50.229Z,73.22
2022-12-11T07:01:20.671Z,72.76
2022-12-11T07:03:48.232Z,73.16
2022-12-11T07:06:15.812Z,73.13
2022-12-11T07:08:43.727Z,73.40
2022-12-11T07:11:14.297Z,73.08
2022-12-11T07:13:44.421Z,73.44
2022-12-11T07:16:13.462Z,73.59
2022-12-11T07:18:42.559Z,73.90
2022-12-11T07:21:12.266Z,73.97
2022-12-11T07:23:39.236Z,73.92
2022-12-11T07:26:08.286Z,74.38
2022-12-11T07:28:35.971Z,74.97
2022-12-11T07:31:07.729Z,75.45
2022-12-11T07:33:35.143Z,76.03
2022-12-11T07:36:07.100Z,76.00
2022-12-11T07:38:34.504Z,75.92
2022-12-11T07:41:06.281Z,76.53
2022-12-11T07:43:33.978Z,76.72
2022-12-11T07:46:05.953Z,76.53
2022-12-11T07:48:35.745Z,76.83
2022-12-11T07:51:33.008Z,77.15
2022-12-11T07:54:06.583Z,77.12
2022-12-11T07:56:34.553Z,77.25
2022-12-11T07:59:03.862Z,77.50
2022-12-11T08:01:33.655Z,77.45
2022-12-11T08:04:00.666Z,77.30
2022-12-11T08:06:30.380Z,77.49
2022-12-11T08:08:58.960Z,77.15
2022-12-11T08:11:26.853Z,76.88
2022-12-11T08:13:53.939Z,77.27
2022-12-11T08:16:21.347Z,76.81
2022-12-11T08:18:48.920Z,76.55
2022-12-11T08:21:18.630Z,76.83
2022-12-11T08:23:45.983Z,77.06
2022-12-11T08:26:18.878Z,76.77
2022-12-11T08:28:45.892Z,76.46
2022-12-11T08:31:14.747Z,76.54
2022-12-11T08:33:42.494Z,76.13
2022-12-11T08:36:13.030Z,75.83
2022-12-11T08:38:41.176Z,75.79
2022-12-11T08:41:12.973Z,75.56
2022-12-11T08:43:40.485Z,75.18
2022-12-11T08:46:07.542Z,75.39
2022-12-11T08:48:36.736Z,74.82
2022-12-11T08:51:09.410Z,74.22
2022-12-11T08:53:36.369Z,74.38
2022-12-11T08:56:04.851Z,73.67
2022-12-11T08:58:31.763Z,73.87
2022-12-11T09:00:58.803Z,73.28
2022-12-11T09:03:26.214Z,73.60
2022-12-11T09:05:53.135Z,73.36
2022-12-11T09:08:20.136Z,73.20
2022-12-11T09:10:47.070Z,73.65
2022-12-11T09:13:13.929Z,73.88
2022-12-11T09:15:41.957Z,73.48
2022-12-11T09:18:09.274Z,73.91
2022-12-11T09:20:36.733Z,73.85
2022-12-11T09:23:03.835Z,73.55
2022-12-11T09:25:30.740Z,73.42
2022-12-11T09:27:57.828Z,72.41
2022-12-11T09:30:24.790Z,73.23
2022-12-11T09:32:53.197Z,73.37
2022-12-11T09:35:20.185Z,72.87
2022-12-11T09:37:47.103Z,73.25
2022-12-11T09:40:14.553Z,73.04
2022-12-11T09:42:53.212Z,73.21
2022-12-11T10:17:20.221Z,76.73
2022-12-11T10:19:48.432Z,75.95
2022-12-11T10:22:24.824Z,74.79
2022-12-11T10:25:10.698Z,74.02
2022-12-11T10:27:40.642Z,73.35
2022-12-11T10:30:20.922Z,73.40
2022-12-11T10:33:00.159Z,72.68
2022-12-11T10:35:33.950Z,72.95
2022-12-11T10:38:14.783Z,72.50
2022-12-11T10:40:51.673Z,72.22
2022-12-11T10:43:19.318Z,72.81
2022-12-11T10:45:53.942Z,73.36
2022-12-11T10:48:20.974Z,72.81
2022-12-11T10:50:58.166Z,73.60
2022-12-11T10:53:26.187Z,74.12
2022-12-11T10:55:54.018Z,73.87
2022-12-11T10:58:24.348Z,73.59
2022-12-11T11:01:14.488Z,74.21
2022-12-11T11:04:14.565Z,73.24
2022-12-11T11:06:41.847Z,73.37
2022-12-11T11:09:34.421Z,72.90
2022-12-11T11:12:07.594Z,72.87
2022-12-11T11:14:35.163Z,72.85
2022-12-11T11:17:02.141Z,73.05
2022-12-11T11:19:28.984Z,72.44
2022-12-11T11:21:59.198Z,71.23
2022-12-11T11:24:38.174Z,70.95
2022-12-11T11:27:33.033Z,70.08
2022-12-11T11:30:11.001Z,69.58
2022-12-11T11:32:40.017Z,68.59
2022-12-11T11:35:13.132Z,68.23
2022-12-11T11:37:45.004Z,67.90
2022-12-11T11:40:19.118Z,67.33
2022-12-11T11:42:50.055Z,67.00
2022-12-11T11:45:24.558Z,66.61
2022-12-11T11:48:11.632Z,66.68
2022-12-11T11:50:45.014Z,66.66
2022-12-11T11:53:25.792Z,67.30
2022-12-11T11:56:21.458Z,67.40
2022-12-11T11:59:05.840Z,67.04
2022-12-11T12:01:33.284Z,66.70
2022-12-11T12:04:02.808Z,67.17
2022-12-11T12:06:57.689Z,66.35
2022-12-11T12:09:24.674Z,66.25
2022-12-11T12:12:04.211Z,65.98
2022-12-11T12:17:56.284Z,65.40
2022-12-11T12:20:32.806Z,65.66
2022-12-11T12:23:08.897Z,65.39
2022-12-11T12:25:45.561Z,65.80
2022-12-11T12:28:39.707Z,65.86
2022-12-11T12:31:09.669Z,65.99
2022-12-11T12:33:48.081Z,65.74
2022-12-11T12:36:35.393Z,65.11
2022-12-11T12:39:31.524Z,65.13
2022-12-11T12:42:07.707Z,65.79
2022-12-11T12:44:54.225Z,65.27
2022-12-11T12:47:22.820Z,65.61
2022-12-11T12:49:51.410Z,65.62
2022-12-11T12:52:30.023Z,65.80
2022-12-11T12:55:14.298Z,65.92
2022-12-11T12:58:12.609Z,65.71
2022-12-11T13:00:44.199Z,65.78
2022-12-11T13:03:22.885Z,65.88
2022-12-11T13:06:08.751Z,66.79
2022-12-11T13:08:50.880Z,67.08
2022-12-11T13:11:20.131Z,66.38
2022-12-11T13:14:07.687Z,66.50
2022-12-11T13:16:38.058Z,67.10
2022-12-11T13:19:26.937Z,66.79
2022-12-11T13:22:17.784Z,67.11
2022-12-11T13:24:49.069Z,66.90
2022-12-11T13:27:36.559Z,67.38
2022-12-11T13:30:15.178Z,67.99
2022-12-11T13:33:29.274Z,67.88
2022-12-11T13:36:17.735Z,67.84
2022-12-11T13:39:23.357Z,68.06
2022-12-11T13:41:57.666Z,68.61
2022-12-11T13:44:30.999Z,68.10
2022-12-11T13:47:00.499Z,68.10
2022-12-11T13:49:34.144Z,69.05
2022-12-11T13:52:01.913Z,69.01
2022-12-11T13:54:30.337Z,69.02
2022-12-11T13:57:07.835Z,69.10
2022-12-11T13:59:42.876Z,70.28
2022-12-11T14:02:21.977Z,70.66
2022-12-11T14:04:52.070Z,71.11
2022-12-11T14:07:26.225Z,71.06
2022-12-11T14:09:59.346Z,71.05
2022-12-11T14:12:26.603Z,71.60
2022-12-11T14:14:57.084Z,71.81
2022-12-11T14:17:28.904Z,71.91
2022-12-11T14:19:58.449Z,71.92
2022-12-11T14:22:28.090Z,72.06
2022-12-11T14:25:00.663Z,72.12
2022-12-11T14:27:27.944Z,72.58
2022-12-11T14:29:55.564Z,73.26
2022-12-11T14:32:40.689Z,74.52
2022-12-11T14:35:21.953Z,75.28
2022-12-11T14:37:49.443Z,74.39
2022-12-11T14:40:18.978Z,75.03
2022-12-11T14:42:54.487Z,75.27
2022-12-11T14:45:32.546Z,75.34
2022-12-11T14:48:01.533Z,75.41
2022-12-11T14:50:52.138Z,75.54
2022-12-11T14:53:33.506Z,76.15
2022-12-11T14:56:06.732Z,75.59
2022-12-11T14:58:41.266Z,76.39
2022-12-11T15:01:22.548Z,76.78
2022-12-11T15:03:49.811Z,76.50
2022-12-11T15:06:26.052Z,77.12
2022-12-11T15:08:53.196Z,76.66
2022-12-11T15:11:21.168Z,77.20
2022-12-11T15:13:54.622Z,76.79
2022-12-11T15:16:24.117Z,76.77
2022-12-11T15:18:53.799Z,76.87
2022-12-11T15:21:32.309Z,76.38
2022-12-11T15:24:01.776Z,76.09
2022-12-11T15:26:41.553Z,75.59
2022-12-11T15:29:37.541Z,75.42
2022-12-11T15:32:18.689Z,74.78
2022-12-11T15:35:00.041Z,74.67
2022-12-11T15:37:32.953Z,74.02
2022-12-11T15:40:02.004Z,73.93
2022-12-11T15:42:35.518Z,73.84
2022-12-11T15:45:06.658Z,74.18
2022-12-11T15:47:33.568Z,73.79
2022-12-11T15:50:07.808Z,74.17
2022-12-11T15:52:34.922Z,74.39
2022-12-11T15:55:01.897Z,74.39
2022-12-11T15:57:28.871Z,74.17
2022-12-11T15:59:56.187Z,74.50
2022-12-11T16:02:24.488Z,74.49
2022-12-11T16:04:51.460Z,74.64
2022-12-11T16:07:21.272Z,75.23
2022-12-11T16:09:48.608Z,75.05
2022-12-11T16:12:16.116Z,75.15
2022-12-11T16:14:44.908Z,75.02
2022-12-11T16:17:14.053Z,75.31
2022-12-11T16:19:42.514Z,75.69
2022-12-11T16:22:10.660Z,74.97
2022-12-11T16:24:38.664Z,75.07
2022-12-11T16:27:06.294Z,75.35
2022-12-11T16:29:37.886Z,75.87
2022-12-11T16:32:07.203Z,76.06
2022-12-11T16:34:36.008Z,75.69
2022-12-11T16:37:03.344Z,75.94
2022-12-11T16:39:30.275Z,75.95
2022-12-11T16:41:57.448Z,76.04
2022-12-11T16:44:26.166Z,76.31
2022-12-11T16:46:54.025Z,76.37
2022-12-11T16:49:21.560Z,76.36
2022-12-11T16:51:49.728Z,76.32
2022-12-11T16:54:17.888Z,76.12
2022-12-11T16:56:45.526Z,76.81
2022-12-11T16:59:13.081Z,76.02
2022-12-11T17:01:40.702Z,76.21
2022-12-11T17:04:08.056Z,75.75
2022-12-11T17:06:35.097Z,75.51
2022-12-11T17:09:02.079Z,75.20
2022-12-11T17:11:29.241Z,76.35
2022-12-11T17:13:59.996Z,75.79
2022-12-11T17:16:30.467Z,75.51
2022-12-11T17:18:58.392Z,75.13
2022-12-11T17:21:25.798Z,75.11
2022-12-11T17:23:53.107Z,75.17
2022-12-11T17:26:20.713Z,75.46
2022-12-11T17:28:47.926Z,75.82
2022-12-11T17:31:18.109Z,76.16
2022-12-11T17:33:46.646Z,75.77
2022-12-11T17:36:17.263Z,77.11
2022-12-11T17:38:44.307Z,77.01
2022-12-11T17:41:19.799Z,76.32
2022-12-11T17:43:52.167Z,76.82
2022-12-11T17:46:20.449Z,77.04
2022-12-11T17:48:48.757Z,77.45
2022-12-11T17:51:21.478Z,76.62
2022-12-11T17:53:48.600Z,76.48
2022-12-11T17:56:16.699Z,76.61
2022-12-11T17:58:43.944Z,76.19
2022-12-11T18:01:13.442Z,75.97
2022-12-11T18:03:41.026Z,75.92
2022-12-11T18:06:13.911Z,75.24
2022-12-11T18:08:42.115Z,74.87
2022-12-11T18:11:12.030Z,74.86
2022-12-11T18:13:39.455Z,74.66
2022-12-11T18:16:24.788Z,75.55
2022-12-11T18:18:52.442Z,75.22
2022-12-11T18:21:22.549Z,75.49
2022-12-11T18:23:50.438Z,75.98
2022-12-11T18:26:19.235Z,76.47
2022-12-11T18:28:47.770Z,76.29
2022-12-11T18:31:15.468Z,76.19
2022-12-11T18:33:44.288Z,76.99
2022-12-11T18:36:14.147Z,76.56
2022-12-11T18:38:42.921Z,77.37
2022-12-11T18:41:11.861Z,77.63
2022-12-11T18:43:41.225Z,77.86
2022-12-11T18:46:14.334Z,78.05
2022-12-11T18:48:45.495Z,78.51
2022-12-11T18:51:17.240Z,78.28
2022-12-11T18:53:44.294Z,78.10
2022-12-11T18:56:16.300Z,77.76
2022-12-11T18:58:44.064Z,78.83
2022-12-11T19:01:19.186Z,78.41
2022-12-11T19:03:47.315Z,79.39
2022-12-11T19:06:17.447Z,79.52
2022-12-11T19:08:44.857Z,80.54
2022-12-11T19:11:19.699Z,80.87
2022-12-11T19:13:47.361Z,81.99
2022-12-11T19:16:16.506Z,83.24
2022-12-11T19:18:44.120Z,84.29
2022-12-11T19:21:12.732Z,84.40
2022-12-11T19:23:40.612Z,85.31
2022-12-11T19:26:14.416Z,85.42
2022-12-11T19:28:42.448Z,86.13
2022-12-11T19:31:11.157Z,86.08
2022-12-11T19:33:39.914Z,86.64
2022-12-11T19:36:10.048Z,87.30
2022-12-11T19:38:38.937Z,87.15
2022-12-11T19:41:17.516Z,87.08
2022-12-11T19:43:44.769Z,88.67
2022-12-11T19:46:13.480Z,89.05
2022-12-11T19:48:42.135Z,89.53
2022-12-11T19:51:15.286Z,89.37
2022-12-11T19:53:43.656Z,90.04
2022-12-11T19:56:11.800Z,90.87
2022-12-11T19:58:39.149Z,91.36
2022-12-11T20:01:07.522Z,91.39
2022-12-11T20:03:35.012Z,91.97
2022-12-11T20:06:07.569Z,91.83
2022-12-11T20:08:44.605Z,91.72
2022-12-11T20:11:17.810Z,92.41
2022-12-11T20:13:46.897Z,92.63
2022-12-11T20:16:14.526Z,92.30
2022-12-11T20:18:41.814Z,92.54
2022-12-11T20:21:12.576Z,92.38
2022-12-11T20:23:40.727Z,92.41
2022-12-11T20:26:23.023Z,93.04
2022-12-11T20:28:52.166Z,93.03
2022-12-11T20:31:25.633Z,93.24
2022-12-11T20:33:53.614Z,93.32
2022-12-11T20:36:22.359Z,93.11
2022-12-11T20:38:49.763Z,93.34
2022-12-11T20:41:19.693Z,93.41
2022-12-11T20:43:49.131Z,93.60
2022-12-11T20:46:17.916Z,93.99
2022-12-11T20:48:45.548Z,93.73
2022-12-11T20:51:18.557Z,94.00
2022-12-11T20:53:56.619Z,93.83
2022-12-11T20:56:24.955Z,93.94
2022-12-11T20:58:52.025Z,94.45
2022-12-11T21:01:24.098Z,94.05
2022-12-11T21:03:52.737Z,94.59
2022-12-11T21:06:20.307Z,94.38
2022-12-11T21:08:47.332Z,94.32
2022-12-11T21:11:14.506Z,94.17
2022-12-11T21:13:42.005Z,94.48
2022-12-11T21:16:09.849Z,94.47
2022-12-11T21:18:36.898Z,94.59
2022-12-11T21:21:04.676Z,94.11
2022-12-11T21:23:31.756Z,93.75
2022-12-11T21:25:58.832Z,94.31
2022-12-11T21:28:30.645Z,94.33
2022-12-11T21:31:02.718Z,94.20
2022-12-11T21:33:29.726Z,94.35
2022-12-11T21:35:58.529Z,94.24
2022-12-11T21:38:25.683Z,94.25
2022-12-11T21:40:53.490Z,93.99
2022-12-11T21:43:20.697Z,93.74
2022-12-11T21:46:03.498Z,93.19
2022-12-11T21:48:31.030Z,93.45
2022-12-11T21:51:11.264Z,92.72
2022-12-11T21:53:38.548Z,92.69
2022-12-11T21:56:09.535Z,91.91
2022-12-11T21:58:38.018Z,92.05
2022-12-11T22:01:07.022Z,91.11
2022-12-11T22:03:33.964Z,91.28
2022-12-11T22:06:00.886Z,90.07
2022-12-11T22:08:28.064Z,90.13
2022-12-11T22:10:55.719Z,89.98
2022-12-11T22:13:23.437Z,90.36
2022-12-11T22:15:52.337Z,90.78
2022-12-11T22:18:19.974Z,90.85
2022-12-11T22:20:47.308Z,90.55
2022-12-11T22:23:14.376Z,90.95
2022-12-11T22:25:41.454Z,90.38
2022-12-11T22:28:08.287Z,90.72
2022-12-11T22:30:35.236Z,91.25
2022-12-11T22:33:02.161Z,91.74
2022-12-11T22:35:29.133Z,92.14
2022-12-11T22:37:56.021Z,92.19
2022-12-11T22:40:23.214Z,91.51
2022-12-11T22:42:50.158Z,92.40
2022-12-11T22:45:17.160Z,92.28
2022-12-11T22:47:44.183Z,92.54
2022-12-11T22:50:15.683Z,93.00
2022-12-11T22:52:45.412Z,92.71
2022-12-11T22:55:12.671Z,92.76
2022-12-11T22:57:39.820Z,92.69
2022-12-11T23:00:10.274Z,92.19
2022-12-11T23:02:38.020Z,93.10
2022-12-11T23:05:05.903Z,92.85
2022-12-11T23:07:33.285Z,92.41
2022-12-11T23:10:00.272Z,92.35
2022-12-11T23:12:27.337Z,92.08
2022-12-11T23:14:54.253Z,92.51
2022-12-11T23:17:21.152Z,92.26
2022-12-11T23:19:48.064Z,91.67
2022-12-11T23:22:15.021Z,92.27
2022-12-11T23:24:42.058Z,91.29
2022-12-11T23:27:09.552Z,91.43
2022-12-11T23:29:37.763Z,90.53
2022-12-11T23:32:05.610Z,90.92
2022-12-11T23:34:32.463Z,91.27
2022-12-11T23:36:59.404Z,91.79
2022-12-11T23:39:26.322Z,91.10
2022-12-11T23:41:53.187Z,91.75
2022-12-11T23:44:20.052Z,91.39
2022-12-11T23:46:47.019Z,92.08
2022-12-11T23:49:13.892Z,92.16
2022-12-11T23:51:42.231Z,91.92
2022-12-11T23:54:09.123Z,91.86
2022-12-11T23:56:35.964Z,91.87
2022-12-11T23:59:02.929Z,92.61
